ěÝzenÝ letovÚho provozu ╚eskÚ republiky
Letiste: LKCR Aktualizace: 19.06.2024 03:02:40  UTC
 METAR LKCR 19.06. 03:00 ...
METAR LKCR 190300Z AUTO VRB02KT CAVOK 19/16 Q1012=